createdAt,value
2022-09-27T00:00:03.456Z,11.50
2022-09-27T00:01:03.401Z,11.50
2022-09-27T00:02:03.480Z,11.50
2022-09-27T00:03:03.453Z,11.50
2022-09-27T00:04:03.484Z,11.50
2022-09-27T00:05:03.397Z,11.50
2022-09-27T00:06:03.499Z,11.50
2022-09-27T00:07:03.387Z,11.40
2022-09-27T00:08:03.436Z,11.40
2022-09-27T00:09:03.452Z,11.40
2022-09-27T00:10:03.607Z,11.40
2022-09-27T00:11:03.526Z,11.40
2022-09-27T00:12:03.626Z,11.40
2022-09-27T00:13:03.584Z,11.40
2022-09-27T00:14:02.593Z,11.40
2022-09-27T00:15:03.647Z,11.40
2022-09-27T00:16:02.669Z,11.30
2022-09-27T00:17:02.648Z,11.30
2022-09-27T00:18:02.761Z,11.30
2022-09-27T00:19:02.695Z,11.30
2022-09-27T00:20:02.806Z,11.30
2022-09-27T00:21:02.812Z,11.30
2022-09-27T00:22:02.813Z,11.30
2022-09-27T00:23:02.805Z,11.30
2022-09-27T00:24:02.823Z,11.20
2022-09-27T00:25:02.845Z,11.20
2022-09-27T00:26:02.893Z,11.20
2022-09-27T00:27:02.865Z,11.20
2022-09-27T00:28:02.868Z,11.20
2022-09-27T00:29:02.869Z,11.20
2022-09-27T00:30:02.911Z,11.20
2022-09-27T00:31:03.061Z,11.20
2022-09-27T00:32:03.137Z,11.20
2022-09-27T00:33:03.213Z,11.20
2022-09-27T00:34:03.185Z,11.20
2022-09-27T00:35:03.101Z,11.20
2022-09-27T00:36:02.740Z,11.20
2022-09-27T00:37:02.713Z,11.20
2022-09-27T00:38:02.698Z,11.20
2022-09-27T00:39:02.834Z,11.20
2022-09-27T00:40:02.908Z,11.20
2022-09-27T00:41:03.021Z,11.20
2022-09-27T00:42:03.033Z,11.20
2022-09-27T00:43:03.028Z,11.20
2022-09-27T00:44:03.044Z,11.20
2022-09-27T00:45:03.132Z,11.20
2022-09-27T00:46:03.420Z,11.10
2022-09-27T00:47:03.212Z,11.10
2022-09-27T00:48:03.212Z,11.10
2022-09-27T00:49:03.170Z,11.10
2022-09-27T00:50:03.246Z,11.10
2022-09-27T00:51:03.201Z,11.10
2022-09-27T00:52:03.265Z,11.10
2022-09-27T00:53:03.307Z,11.10
2022-09-27T00:54:03.268Z,11.10
2022-09-27T00:55:03.295Z,11.10
2022-09-27T00:56:03.292Z,11.10
2022-09-27T00:57:03.308Z,11.10
2022-09-27T00:58:03.345Z,11.10
2022-09-27T00:59:03.466Z,11.10
2022-09-27T01:00:03.394Z,11.00
2022-09-27T01:01:03.401Z,11.00
2022-09-27T01:02:03.572Z,11.00
2022-09-27T01:03:03.493Z,11.00
2022-09-27T01:04:03.586Z,11.00
2022-09-27T01:05:02.626Z,11.00
2022-09-27T01:06:02.632Z,11.00
2022-09-27T01:07:02.755Z,11.00
2022-09-27T01:08:02.711Z,11.00
2022-09-27T01:09:02.690Z,11.00
2022-09-27T01:10:02.731Z,11.00
2022-09-27T01:11:02.685Z,11.00
2022-09-27T01:12:02.721Z,11.00
2022-09-27T01:13:02.758Z,11.00
2022-09-27T01:14:02.759Z,10.90
2022-09-27T01:15:02.763Z,11.00
2022-09-27T01:16:02.948Z,10.90
2022-09-27T01:17:02.940Z,10.90
2022-09-27T01:18:02.920Z,11.00
2022-09-27T01:19:03.064Z,11.00
2022-09-27T01:20:03.032Z,10.90
2022-09-27T01:21:03.021Z,11.00
2022-09-27T01:22:02.965Z,10.90
2022-09-27T01:23:02.965Z,10.90
2022-09-27T01:24:03.049Z,10.90
2022-09-27T01:25:03.025Z,10.90
2022-09-27T01:26:03.106Z,10.90
2022-09-27T01:27:03.107Z,11.00
2022-09-27T01:28:03.203Z,10.90
2022-09-27T01:29:03.130Z,10.90
2022-09-27T01:30:03.180Z,10.90
2022-09-27T01:31:03.316Z,10.90
2022-09-27T01:32:03.177Z,10.90
2022-09-27T01:33:03.165Z,11.00
2022-09-27T01:34:03.116Z,11.00
2022-09-27T01:35:03.131Z,11.00
2022-09-27T01:36:03.200Z,11.00
2022-09-27T01:37:03.165Z,11.00
2022-09-27T01:38:03.132Z,11.00
2022-09-27T01:39:03.039Z,11.00
2022-09-27T01:40:03.085Z,11.00
2022-09-27T01:41:03.277Z,11.00
2022-09-27T01:42:03.141Z,11.00
2022-09-27T01:43:03.249Z,11.00
2022-09-27T01:44:03.196Z,11.00
2022-09-27T01:45:03.226Z,11.00
2022-09-27T01:46:03.280Z,11.00
2022-09-27T01:47:03.257Z,11.00
2022-09-27T01:48:03.383Z,11.00
2022-09-27T01:49:03.365Z,11.00
2022-09-27T01:50:03.339Z,11.00
2022-09-27T01:51:03.279Z,11.00
2022-09-27T01:52:03.374Z,11.00
2022-09-27T01:53:03.412Z,11.00
2022-09-27T01:54:03.366Z,11.00
2022-09-27T01:55:03.432Z,11.00
2022-09-27T01:56:03.558Z,11.00
2022-09-27T01:57:03.587Z,11.00
2022-09-27T01:58:03.609Z,11.00
2022-09-27T01:59:03.566Z,11.00
2022-09-27T02:00:02.721Z,11.00
2022-09-27T02:01:02.715Z,11.00
2022-09-27T02:02:02.676Z,11.00
2022-09-27T02:03:02.889Z,11.00
2022-09-27T02:04:02.823Z,10.90
2022-09-27T02:05:02.788Z,10.90
2022-09-27T02:06:02.870Z,10.90
2022-09-27T02:07:02.928Z,10.90
2022-09-27T02:08:02.825Z,10.90
2022-09-27T02:09:02.965Z,10.90
2022-09-27T02:10:02.928Z,10.90
2022-09-27T02:11:02.967Z,10.90
2022-09-27T02:12:03.018Z,10.90
2022-09-27T02:13:02.948Z,10.90
2022-09-27T02:14:03.015Z,10.90
2022-09-27T02:15:02.960Z,10.90
2022-09-27T02:16:03.190Z,10.90
2022-09-27T02:17:03.186Z,10.90
2022-09-27T02:18:03.199Z,10.90
2022-09-27T02:19:03.147Z,10.90
2022-09-27T02:20:03.217Z,10.80
2022-09-27T02:21:03.321Z,10.90
2022-09-27T02:23:03.439Z,10.80
2022-09-27T02:24:03.512Z,10.80
2022-09-27T02:25:03.484Z,10.80
2022-09-27T02:26:03.449Z,10.80
2022-09-27T02:27:03.461Z,10.80
2022-09-27T02:28:03.448Z,10.80
2022-09-27T02:29:03.569Z,10.80
2022-09-27T02:30:03.537Z,10.80
2022-09-27T02:31:03.643Z,10.80
2022-09-27T02:32:03.582Z,10.80
2022-09-27T02:33:02.709Z,10.80
2022-09-27T02:34:02.751Z,10.80
2022-09-27T02:35:02.846Z,10.80
2022-09-27T02:36:02.958Z,10.80
2022-09-27T02:37:02.943Z,10.80
2022-09-27T02:38:02.928Z,10.80
2022-09-27T02:39:02.889Z,10.80
2022-09-27T02:40:02.959Z,10.70
2022-09-27T02:41:03.150Z,10.70
2022-09-27T02:42:03.023Z,10.70
2022-09-27T02:43:02.988Z,10.70
2022-09-27T02:44:03.108Z,10.70
2022-09-27T02:45:03.059Z,10.70
2022-09-27T02:46:03.195Z,10.70
2022-09-27T02:47:03.306Z,10.70
2022-09-27T02:48:03.285Z,10.70
2022-09-27T02:49:03.259Z,10.70
2022-09-27T02:50:03.446Z,10.60
2022-09-27T02:51:03.452Z,10.60
2022-09-27T02:52:03.561Z,10.70
2022-09-27T02:53:02.673Z,10.60
2022-09-27T02:54:02.641Z,10.60
2022-09-27T02:55:03.352Z,10.60
2022-09-27T02:56:03.344Z,10.60
2022-09-27T02:57:03.479Z,10.60
2022-09-27T02:58:03.457Z,10.60
2022-09-27T02:59:03.438Z,10.60
2022-09-27T03:00:03.468Z,10.60
2022-09-27T03:01:03.657Z,10.60
2022-09-27T03:02:03.538Z,10.60
2022-09-27T03:03:03.062Z,10.60
2022-09-27T03:04:03.835Z,10.60
2022-09-27T03:05:02.902Z,10.60
2022-09-27T03:06:03.055Z,10.60
2022-09-27T03:07:03.083Z,10.60
2022-09-27T03:08:03.280Z,10.60
2022-09-27T03:09:03.211Z,10.60
2022-09-27T03:10:03.214Z,10.60
2022-09-27T03:11:03.258Z,10.60
2022-09-27T03:12:03.298Z,10.60
2022-09-27T03:13:03.482Z,10.60
2022-09-27T03:14:09.045Z,10.60
2022-09-27T03:15:03.435Z,10.60
2022-09-27T03:16:03.407Z,10.60
2022-09-27T03:17:03.516Z,10.60
2022-09-27T03:18:03.513Z,10.60
2022-09-27T03:19:03.617Z,10.60
2022-09-27T03:20:02.676Z,10.60
2022-09-27T03:21:02.634Z,10.60
2022-09-27T03:22:02.643Z,10.60
2022-09-27T03:23:03.273Z,10.60
2022-09-27T03:24:03.248Z,10.60
2022-09-27T03:25:03.275Z,10.60
2022-09-27T03:26:03.254Z,10.60
2022-09-27T03:27:03.300Z,10.60
2022-09-27T03:28:03.370Z,10.60
2022-09-27T03:29:03.361Z,10.60
2022-09-27T03:30:03.437Z,10.60
2022-09-27T03:31:03.458Z,10.60
2022-09-27T03:32:03.349Z,10.60
2022-09-27T03:33:03.336Z,10.60
2022-09-27T03:34:03.310Z,10.60
2022-09-27T03:35:03.298Z,10.60
2022-09-27T03:36:04.337Z,10.60
2022-09-27T03:37:03.333Z,10.60
2022-09-27T03:38:03.432Z,10.60
2022-09-27T03:39:03.454Z,10.70
2022-09-27T03:40:03.457Z,10.70
2022-09-27T03:41:03.566Z,10.70
2022-09-27T03:42:03.485Z,10.70
2022-09-27T03:43:03.497Z,10.70
2022-09-27T03:44:03.561Z,10.70
2022-09-27T03:45:03.518Z,10.70
2022-09-27T03:46:03.663Z,10.70
2022-09-27T03:47:03.562Z,10.70
2022-09-27T03:48:03.383Z,10.70
2022-09-27T03:49:03.358Z,10.70
2022-09-27T03:50:03.390Z,10.70
2022-09-27T03:51:03.354Z,10.70
2022-09-27T03:52:03.448Z,10.70
2022-09-27T03:53:03.460Z,10.70
2022-09-27T03:54:03.391Z,10.70
2022-09-27T03:55:03.381Z,10.70
2022-09-27T03:56:02.784Z,10.70
2022-09-27T03:57:02.839Z,10.70
2022-09-27T03:58:02.823Z,10.70
2022-09-27T03:59:02.770Z,10.70
2022-09-27T04:00:02.844Z,10.70
2022-09-27T04:01:03.469Z,10.70
2022-09-27T04:02:03.566Z,10.70
2022-09-27T04:03:03.578Z,10.70
2022-09-27T04:04:03.442Z,10.70
2022-09-27T04:05:02.638Z,10.70
2022-09-27T04:06:02.776Z,10.70
2022-09-27T04:07:02.852Z,10.70
2022-09-27T04:08:03.112Z,10.70
2022-09-27T04:09:02.840Z,10.70
2022-09-27T04:10:02.829Z,10.70
2022-09-27T04:11:02.945Z,10.70
2022-09-27T04:12:03.041Z,10.70
2022-09-27T04:13:02.750Z,10.70
2022-09-27T04:14:03.217Z,10.70
2022-09-27T04:15:03.295Z,10.70
2022-09-27T04:16:03.314Z,10.70
2022-09-27T04:17:03.415Z,10.70
2022-09-27T04:18:03.329Z,10.70
2022-09-27T04:19:03.322Z,10.70
2022-09-27T04:20:03.289Z,10.70
2022-09-27T04:21:03.315Z,10.70
2022-09-27T04:22:03.452Z,10.70
2022-09-27T04:23:03.565Z,10.70
2022-09-27T04:24:03.471Z,10.70
2022-09-27T04:25:03.830Z,10.70
2022-09-27T04:26:02.880Z,10.70
2022-09-27T04:27:02.960Z,10.70
2022-09-27T04:28:02.920Z,10.70
2022-09-27T04:29:03.037Z,10.80
2022-09-27T04:30:02.998Z,10.80
2022-09-27T04:31:02.967Z,10.70
2022-09-27T04:32:02.988Z,10.70
2022-09-27T04:33:02.889Z,10.70
2022-09-27T04:34:02.912Z,10.80
2022-09-27T04:35:03.168Z,10.80
2022-09-27T04:36:03.157Z,10.80
2022-09-27T04:37:03.229Z,10.80
2022-09-27T04:38:03.268Z,10.80
2022-09-27T04:39:03.327Z,10.80
2022-09-27T04:40:03.268Z,10.80
2022-09-27T04:41:03.482Z,10.80
2022-09-27T04:42:03.391Z,10.80
2022-09-27T04:43:03.295Z,10.80
2022-09-27T04:44:03.333Z,10.80
2022-09-27T04:45:03.438Z,10.80
2022-09-27T04:46:03.519Z,10.80
2022-09-27T04:47:03.609Z,10.80
2022-09-27T04:48:03.508Z,10.80
2022-09-27T04:49:03.509Z,10.80
2022-09-27T04:50:03.541Z,10.80
2022-09-27T04:51:03.578Z,10.80
2022-09-27T04:52:03.572Z,10.80
2022-09-27T04:53:02.630Z,10.80
2022-09-27T04:54:02.791Z,10.80
2022-09-27T04:55:02.720Z,10.80
2022-09-27T04:56:02.675Z,10.80
2022-09-27T04:57:02.739Z,10.80
2022-09-27T04:58:02.830Z,10.80
2022-09-27T04:59:05.719Z,10.80
2022-09-27T05:00:02.936Z,10.80
2022-09-27T05:01:02.953Z,10.80
2022-09-27T05:02:03.072Z,10.80
2022-09-27T05:03:03.051Z,10.80
2022-09-27T05:04:03.038Z,10.80
2022-09-27T05:05:03.059Z,10.80
2022-09-27T05:06:03.084Z,10.80
2022-09-27T05:07:03.142Z,10.80
2022-09-27T05:08:03.227Z,10.80
2022-09-27T05:09:03.216Z,10.80
2022-09-27T05:10:03.258Z,10.80
2022-09-27T05:11:03.211Z,10.80
2022-09-27T05:12:03.151Z,10.80
2022-09-27T05:13:03.264Z,10.80
2022-09-27T05:14:02.605Z,10.80
2022-09-27T05:15:03.643Z,10.80
2022-09-27T05:16:03.558Z,10.80
2022-09-27T05:17:03.450Z,10.80
2022-09-27T05:18:03.488Z,10.80
2022-09-27T05:19:03.431Z,10.80
2022-09-27T05:20:03.487Z,10.80
2022-09-27T05:21:03.614Z,10.80
2022-09-27T05:22:03.505Z,10.80
2022-09-27T05:23:03.518Z,10.80
2022-09-27T05:24:03.412Z,10.80
2022-09-27T05:25:03.475Z,10.80
2022-09-27T05:26:02.670Z,10.80
2022-09-27T05:27:02.718Z,10.80
2022-09-27T05:28:02.765Z,10.80
2022-09-27T05:29:02.849Z,10.80
2022-09-27T05:30:02.851Z,10.80
2022-09-27T05:31:02.920Z,10.80
2022-09-27T05:32:02.998Z,10.80
2022-09-27T05:33:03.029Z,10.80
2022-09-27T05:34:03.226Z,10.80
2022-09-27T05:35:03.109Z,10.80
2022-09-27T05:36:03.302Z,10.80
2022-09-27T05:37:03.326Z,10.80
2022-09-27T05:38:03.254Z,10.80
2022-09-27T05:39:03.371Z,10.80
2022-09-27T05:40:12.155Z,10.80
2022-09-27T05:41:03.618Z,10.80
2022-09-27T05:42:02.685Z,10.80
2022-09-27T05:43:03.651Z,10.80
2022-09-27T05:44:03.599Z,10.80
2022-09-27T05:45:02.643Z,10.80
2022-09-27T05:46:02.962Z,10.80
2022-09-27T05:47:02.952Z,10.80
2022-09-27T05:48:02.967Z,10.80
2022-09-27T05:49:02.983Z,10.80
2022-09-27T05:50:03.006Z,10.80
2022-09-27T05:51:03.032Z,10.80
2022-09-27T05:52:03.032Z,10.80
2022-09-27T05:53:02.675Z,10.80
2022-09-27T05:54:02.637Z,10.80
2022-09-27T05:55:02.694Z,10.80
2022-09-27T05:56:02.844Z,10.80
2022-09-27T05:57:02.709Z,10.80
2022-09-27T05:58:02.753Z,10.80
2022-09-27T05:59:03.003Z,10.80
2022-09-27T06:00:02.960Z,10.80
2022-09-27T06:01:03.020Z,10.80
2022-09-27T06:02:03.392Z,10.80
2022-09-27T06:03:03.460Z,10.80
2022-09-27T06:04:02.784Z,10.80
2022-09-27T06:05:02.952Z,10.80
2022-09-27T06:06:03.032Z,10.90
2022-09-27T06:07:02.826Z,10.90
2022-09-27T06:08:02.788Z,10.90
2022-09-27T06:09:02.794Z,10.90
2022-09-27T06:10:03.541Z,10.90
2022-09-27T06:11:03.608Z,10.90
2022-09-27T06:12:03.594Z,10.90
2022-09-27T06:13:03.546Z,11.00
2022-09-27T06:14:03.508Z,11.00
2022-09-27T06:15:03.497Z,11.00
2022-09-27T06:16:03.467Z,11.00
2022-09-27T06:17:04.035Z,11.00
2022-09-27T06:18:02.713Z,11.10
2022-09-27T06:19:02.695Z,11.10
2022-09-27T06:20:02.799Z,11.10
2022-09-27T06:21:02.802Z,11.10
2022-09-27T06:22:02.825Z,11.10
2022-09-27T06:23:02.886Z,11.10
2022-09-27T06:24:02.880Z,11.10
2022-09-27T06:25:02.988Z,11.10
2022-09-27T06:26:03.005Z,11.10
2022-09-27T06:27:02.994Z,11.10
2022-09-27T06:28:03.011Z,11.10
2022-09-27T06:29:03.065Z,11.10
2022-09-27T06:30:03.032Z,11.10
2022-09-27T06:31:03.232Z,11.10
2022-09-27T06:32:03.215Z,11.20
2022-09-27T06:33:03.311Z,11.20
2022-09-27T06:34:03.341Z,11.20
2022-09-27T06:35:03.319Z,11.20
2022-09-27T06:36:03.356Z,11.20
2022-09-27T06:37:03.313Z,11.20
2022-09-27T06:38:03.445Z,11.20
2022-09-27T06:39:03.530Z,11.20
2022-09-27T06:40:03.629Z,11.20
2022-09-27T06:41:03.512Z,11.20
2022-09-27T06:42:03.572Z,11.20
2022-09-27T06:43:03.557Z,11.20
2022-09-27T06:44:02.642Z,11.20
2022-09-27T06:45:02.652Z,11.20
2022-09-27T06:46:02.675Z,11.20
2022-09-27T06:47:02.613Z,11.20
2022-09-27T06:48:03.621Z,11.20
2022-09-27T06:49:02.750Z,11.30
2022-09-27T06:50:03.638Z,11.20
2022-09-27T06:51:03.577Z,11.20
2022-09-27T06:52:02.657Z,11.20
2022-09-27T06:53:02.733Z,11.20
2022-09-27T06:54:02.771Z,11.20
2022-09-27T06:55:02.791Z,11.20
2022-09-27T06:56:02.933Z,11.20
2022-09-27T06:57:02.982Z,11.20
2022-09-27T06:58:03.182Z,11.20
2022-09-27T06:59:03.074Z,11.20
2022-09-27T07:00:03.095Z,11.20
2022-09-27T07:01:03.319Z,11.20
2022-09-27T07:02:03.257Z,11.20
2022-09-27T07:03:03.221Z,11.20
2022-09-27T07:04:03.325Z,11.20
2022-09-27T07:05:03.400Z,11.20
2022-09-27T07:06:03.559Z,11.20
2022-09-27T07:07:03.560Z,11.20
2022-09-27T07:08:02.654Z,11.20
2022-09-27T07:09:02.640Z,11.20
2022-09-27T07:10:06.365Z,11.20
2022-09-27T07:11:02.736Z,11.20
2022-09-27T07:12:02.861Z,11.20
2022-09-27T07:13:02.883Z,11.20
2022-09-27T07:14:02.912Z,11.20
2022-09-27T07:15:02.867Z,11.20
2022-09-27T07:16:03.229Z,11.20
2022-09-27T07:17:03.115Z,11.20
2022-09-27T07:18:03.141Z,11.20
2022-09-27T07:19:03.085Z,11.20
2022-09-27T07:20:03.144Z,11.20
2022-09-27T07:21:03.065Z,11.20
2022-09-27T07:22:03.103Z,11.20
2022-09-27T07:23:03.115Z,11.30
2022-09-27T07:24:03.087Z,11.30
2022-09-27T07:25:03.021Z,11.20
2022-09-27T07:26:03.103Z,11.20
2022-09-27T07:27:03.088Z,11.30
2022-09-27T07:28:03.103Z,11.20
2022-09-27T07:29:03.020Z,11.30
2022-09-27T07:30:03.060Z,11.30
2022-09-27T07:31:03.019Z,11.20
2022-09-27T07:32:03.091Z,11.20
2022-09-27T07:33:03.180Z,11.20
2022-09-27T07:34:03.222Z,11.20
2022-09-27T07:35:03.188Z,11.20
2022-09-27T07:36:03.344Z,11.20
2022-09-27T07:37:03.268Z,11.20
2022-09-27T07:38:03.296Z,11.20
2022-09-27T07:39:03.371Z,11.20
2022-09-27T07:40:03.306Z,11.20
2022-09-27T07:41:03.403Z,11.20
2022-09-27T07:42:03.380Z,11.10
2022-09-27T07:43:03.435Z,11.10
2022-09-27T07:44:03.493Z,11.10
2022-09-27T07:45:06.172Z,11.10
2022-09-27T07:46:03.562Z,11.10
2022-09-27T07:47:03.452Z,11.10
2022-09-27T07:48:03.457Z,11.10
2022-09-27T07:49:03.408Z,11.00
2022-09-27T07:50:03.435Z,11.00
2022-09-27T07:51:03.534Z,11.00
2022-09-27T07:52:02.592Z,11.00
2022-09-27T07:53:02.709Z,11.00
2022-09-27T07:54:06.571Z,11.00
2022-09-27T07:55:02.865Z,11.00
2022-09-27T07:56:02.880Z,11.00
2022-09-27T07:57:02.878Z,11.00
2022-09-27T07:58:02.829Z,11.00
2022-09-27T07:59:03.001Z,11.00
2022-09-27T08:00:02.958Z,11.00
2022-09-27T08:01:03.039Z,11.00
2022-09-27T08:02:02.984Z,11.00
2022-09-27T08:03:02.985Z,11.00
2022-09-27T08:04:02.959Z,11.00
2022-09-27T08:05:02.954Z,11.00
2022-09-27T08:06:03.052Z,11.00
2022-09-27T08:07:03.021Z,11.00
2022-09-27T08:08:03.092Z,10.90
2022-09-27T08:09:03.155Z,10.90
2022-09-27T08:10:03.084Z,10.90
2022-09-27T08:11:03.038Z,10.90
2022-09-27T08:12:03.329Z,10.90
2022-09-27T08:13:03.538Z,10.90
2022-09-27T08:14:03.295Z,10.90
2022-09-27T08:15:03.322Z,10.90
2022-09-27T08:16:03.677Z,10.90
2022-09-27T08:17:03.550Z,10.90
2022-09-27T08:18:03.507Z,10.90
2022-09-27T08:19:03.568Z,10.90
2022-09-27T08:20:03.542Z,10.90
2022-09-27T08:21:03.575Z,10.90
2022-09-27T08:22:03.622Z,10.90
2022-09-27T08:23:03.604Z,11.00
2022-09-27T08:24:03.594Z,11.00
2022-09-27T08:25:03.524Z,11.00
2022-09-27T08:26:02.636Z,11.00
2022-09-27T08:27:02.640Z,11.00
2022-09-27T08:28:02.757Z,11.00
2022-09-27T08:29:02.782Z,11.10
2022-09-27T08:30:02.738Z,11.10
2022-09-27T08:31:02.870Z,11.10
2022-09-27T08:32:03.570Z,11.10
2022-09-27T08:33:03.609Z,11.10
2022-09-27T08:34:02.642Z,11.10
2022-09-27T08:35:02.696Z,11.10
2022-09-27T08:36:02.728Z,11.10
2022-09-27T08:37:02.762Z,11.10
2022-09-27T08:38:03.458Z,11.10
2022-09-27T08:39:03.591Z,11.10
2022-09-27T08:40:03.551Z,11.10
2022-09-27T08:41:02.625Z,11.10
2022-09-27T08:42:02.636Z,11.10
2022-09-27T08:43:02.663Z,11.10
2022-09-27T08:44:03.072Z,11.10
2022-09-27T08:45:03.529Z,11.10
2022-09-27T08:46:03.061Z,11.10
2022-09-27T08:47:03.151Z,11.10
2022-09-27T08:48:03.115Z,11.10
2022-09-27T08:49:03.103Z,11.10
2022-09-27T08:50:03.052Z,11.10
2022-09-27T08:51:03.253Z,11.20
2022-09-27T08:52:03.245Z,11.20
2022-09-27T08:53:03.465Z,11.20
2022-09-27T08:54:03.510Z,11.20
2022-09-27T08:55:03.505Z,11.20
2022-09-27T08:56:03.451Z,11.30
2022-09-27T08:57:03.471Z,11.30
2022-09-27T08:58:03.418Z,11.30
2022-09-27T08:59:03.387Z,11.30
2022-09-27T09:00:03.471Z,11.40
2022-09-27T09:01:03.567Z,11.40
2022-09-27T09:02:03.524Z,11.40
2022-09-27T09:03:03.451Z,11.40
2022-09-27T09:04:03.627Z,11.50
2022-09-27T09:05:03.624Z,11.50
2022-09-27T09:06:03.637Z,11.50
2022-09-27T09:07:02.860Z,11.50
2022-09-27T09:08:02.836Z,11.50
2022-09-27T09:09:02.906Z,11.60
2022-09-27T09:10:02.882Z,11.60
2022-09-27T09:11:02.904Z,11.60
2022-09-27T09:12:02.980Z,11.60
2022-09-27T09:13:03.025Z,11.60
2022-09-27T09:14:03.056Z,11.70
2022-09-27T09:15:02.956Z,11.70
2022-09-27T09:16:03.160Z,11.70
2022-09-27T09:17:03.186Z,11.70
2022-09-27T09:18:03.117Z,11.70
2022-09-27T09:19:03.135Z,11.80
2022-09-27T09:20:03.163Z,11.80
2022-09-27T09:21:03.211Z,11.80
2022-09-27T09:22:03.297Z,11.80
2022-09-27T09:23:03.331Z,11.80
2022-09-27T09:24:03.210Z,11.80
2022-09-27T09:25:03.369Z,11.90
2022-09-27T09:26:03.364Z,11.90
2022-09-27T09:27:03.380Z,11.90
2022-09-27T09:28:02.937Z,11.90
2022-09-27T09:29:03.102Z,11.90
2022-09-27T09:30:02.927Z,11.80
2022-09-27T09:31:02.866Z,11.80
2022-09-27T09:32:03.054Z,11.80
2022-09-27T09:33:02.982Z,11.70
2022-09-27T09:34:02.995Z,11.70
2022-09-27T09:35:03.060Z,11.70
2022-09-27T09:36:03.164Z,11.70
2022-09-27T09:37:03.078Z,11.70
2022-09-27T09:38:03.046Z,11.60
2022-09-27T09:39:03.185Z,11.60
2022-09-27T09:40:08.217Z,11.60
2022-09-27T09:41:03.318Z,11.50
2022-09-27T09:42:03.076Z,11.50
2022-09-27T09:43:03.112Z,11.50
2022-09-27T09:44:03.135Z,11.40
2022-09-27T09:45:03.234Z,11.40
2022-09-27T09:46:03.452Z,11.30
2022-09-27T09:47:03.407Z,11.30
2022-09-27T09:48:03.475Z,11.30
2022-09-27T09:49:03.574Z,11.30
2022-09-27T09:50:02.716Z,11.30
2022-09-27T09:51:02.662Z,11.20
2022-09-27T09:52:06.607Z,11.20
2022-09-27T09:53:03.103Z,11.20
2022-09-27T09:54:03.061Z,11.20
2022-09-27T09:55:03.087Z,11.20
2022-09-27T09:56:03.229Z,11.10
2022-09-27T09:57:03.159Z,11.10
2022-09-27T09:58:03.280Z,11.10
2022-09-27T09:59:03.341Z,11.10
2022-09-27T10:00:03.397Z,11.10
2022-09-27T10:01:03.557Z,11.10
2022-09-27T10:02:03.467Z,11.10
2022-09-27T10:03:03.454Z,11.10
2022-09-27T10:04:03.420Z,11.10
2022-09-27T10:05:07.605Z,11.10
2022-09-27T10:06:03.473Z,11.10
2022-09-27T10:07:03.396Z,11.10
2022-09-27T10:08:03.486Z,11.10
2022-09-27T10:09:03.460Z,11.10
2022-09-27T10:10:03.500Z,11.10
2022-09-27T10:11:03.456Z,11.10
2022-09-27T10:12:03.531Z,11.10
2022-09-27T10:13:03.548Z,11.10
2022-09-27T10:14:02.657Z,11.10
2022-09-27T10:15:02.912Z,11.10
2022-09-27T10:16:02.856Z,11.10
2022-09-27T10:17:02.798Z,11.10
2022-09-27T10:18:02.831Z,11.10
2022-09-27T10:19:02.940Z,11.10
2022-09-27T10:20:02.999Z,11.10
2022-09-27T10:21:03.020Z,11.10
2022-09-27T10:22:03.080Z,11.10
2022-09-27T10:23:03.129Z,11.20
2022-09-27T10:24:03.163Z,11.20
2022-09-27T10:25:03.315Z,11.20
2022-09-27T10:26:03.445Z,11.20
2022-09-27T10:27:03.464Z,11.30
2022-09-27T10:28:03.520Z,11.30
2022-09-27T10:29:03.549Z,11.30
2022-09-27T10:30:03.640Z,11.40
2022-09-27T10:31:03.593Z,11.40
2022-09-27T10:32:02.647Z,11.50
2022-09-27T10:33:02.761Z,11.50
2022-09-27T10:34:02.773Z,11.50
2022-09-27T10:35:02.923Z,11.60
2022-09-27T10:36:02.905Z,11.60
2022-09-27T10:37:02.912Z,11.70
2022-09-27T10:38:02.943Z,11.70
2022-09-27T10:39:02.912Z,11.80
2022-09-27T10:40:03.018Z,11.80
2022-09-27T10:41:03.028Z,11.90
2022-09-27T10:42:03.133Z,12.00
2022-09-27T10:43:03.087Z,12.00
2022-09-27T10:44:03.112Z,12.10
2022-09-27T10:45:03.162Z,12.20
2022-09-27T10:46:03.173Z,12.20
2022-09-27T10:47:03.165Z,12.30
2022-09-27T10:48:03.221Z,12.30
2022-09-27T10:49:03.334Z,12.40
2022-09-27T10:50:02.685Z,12.40
2022-09-27T10:51:02.761Z,12.50
2022-09-27T10:52:03.302Z,12.50
2022-09-27T10:53:03.390Z,12.50
2022-09-27T10:54:03.490Z,12.60
2022-09-27T10:55:03.517Z,12.60
2022-09-27T10:56:03.608Z,12.70
2022-09-27T10:57:02.670Z,12.70
2022-09-27T10:58:02.662Z,12.70
2022-09-27T10:59:03.605Z,12.70
2022-09-27T11:00:03.540Z,12.70
2022-09-27T11:01:02.769Z,12.70
2022-09-27T11:02:02.654Z,12.70
2022-09-27T11:03:02.792Z,12.70
2022-09-27T11:04:02.829Z,12.70
2022-09-27T11:05:03.396Z,12.60
2022-09-27T11:06:03.271Z,12.60
2022-09-27T11:07:03.408Z,12.50
2022-09-27T11:08:03.539Z,12.50
2022-09-27T11:09:03.445Z,12.40
2022-09-27T11:10:03.515Z,12.40
2022-09-27T11:11:03.543Z,12.30
2022-09-27T11:12:03.629Z,12.20
2022-09-27T11:13:03.633Z,12.20
2022-09-27T11:14:02.625Z,12.10
2022-09-27T11:15:02.771Z,12.10
2022-09-27T11:16:02.900Z,12.10
2022-09-27T11:17:02.773Z,12.10
2022-09-27T11:18:02.917Z,12.10
2022-09-27T11:19:02.802Z,12.10
2022-09-27T11:20:02.806Z,12.10
2022-09-27T11:21:02.940Z,12.20
2022-09-27T11:22:02.905Z,12.20
2022-09-27T11:23:02.891Z,12.30
2022-09-27T11:24:02.923Z,12.30
2022-09-27T11:25:02.937Z,12.40
2022-09-27T11:26:02.922Z,12.40
2022-09-27T11:27:02.992Z,12.50
2022-09-27T11:28:03.120Z,12.50
2022-09-27T11:29:03.148Z,12.50
2022-09-27T11:30:03.003Z,12.50
2022-09-27T11:31:03.122Z,12.60
2022-09-27T11:32:03.228Z,12.60
2022-09-27T11:33:03.206Z,12.60
2022-09-27T11:34:03.287Z,12.60
2022-09-27T11:35:03.238Z,12.70
2022-09-27T11:36:03.312Z,12.70
2022-09-27T11:37:03.261Z,12.70
2022-09-27T11:38:03.215Z,12.70
2022-09-27T11:39:03.210Z,12.70
2022-09-27T11:40:03.199Z,12.80
2022-09-27T11:41:03.150Z,12.80
2022-09-27T11:42:03.221Z,12.80
2022-09-27T11:43:03.252Z,12.80
2022-09-27T11:44:03.259Z,12.80
2022-09-27T11:45:27.081Z,12.90
2022-09-27T11:46:16.446Z,12.90
2022-09-27T11:47:02.830Z,13.00
2022-09-27T11:48:02.863Z,13.00
2022-09-27T11:49:02.931Z,13.00
2022-09-27T11:50:03.051Z,13.00
2022-09-27T11:51:03.078Z,13.00
2022-09-27T11:52:03.056Z,13.10
2022-09-27T11:53:03.175Z,13.10
2022-09-27T11:54:03.102Z,13.10
2022-09-27T11:55:03.230Z,13.10
2022-09-27T11:56:03.216Z,13.10
2022-09-27T11:57:03.213Z,13.10
2022-09-27T11:58:03.280Z,13.10
2022-09-27T11:59:03.311Z,13.10
2022-09-27T12:00:03.390Z,13.10
2022-09-27T12:01:03.324Z,13.10
2022-09-27T12:02:03.520Z,13.10
2022-09-27T12:03:03.425Z,13.10
2022-09-27T12:04:03.412Z,13.10
2022-09-27T12:05:03.018Z,13.10
2022-09-27T12:06:07.171Z,13.10
2022-09-27T12:07:03.337Z,13.20
2022-09-27T12:08:03.249Z,13.20
2022-09-27T12:09:03.241Z,13.20
2022-09-27T12:10:03.281Z,13.20
2022-09-27T12:11:03.369Z,13.30
2022-09-27T12:12:03.423Z,13.30
2022-09-27T12:13:03.547Z,13.30
2022-09-27T12:14:03.691Z,13.30
2022-09-27T12:15:06.589Z,13.30
2022-09-27T12:16:02.782Z,13.30
2022-09-27T12:17:02.931Z,13.40
2022-09-27T12:18:02.871Z,13.40
2022-09-27T12:19:02.883Z,13.40
2022-09-27T12:20:02.929Z,13.40
2022-09-27T12:21:02.997Z,13.40
2022-09-27T12:22:02.934Z,13.40
2022-09-27T12:23:03.013Z,13.40
2022-09-27T12:24:03.076Z,13.30
2022-09-27T12:25:03.088Z,13.30
2022-09-27T12:26:03.085Z,13.30
2022-09-27T12:27:03.140Z,13.40
2022-09-27T12:28:03.023Z,13.40
2022-09-27T12:29:03.073Z,13.40
2022-09-27T12:30:03.046Z,13.40
2022-09-27T12:31:27.294Z,13.50
2022-09-27T12:32:03.252Z,13.50
2022-09-27T12:33:03.256Z,13.60
2022-09-27T12:34:03.284Z,13.60
2022-09-27T12:35:03.554Z,13.70
2022-09-27T12:36:02.651Z,13.70
2022-09-27T12:37:02.801Z,13.70
2022-09-27T12:38:02.772Z,13.80
2022-09-27T12:39:02.691Z,13.80
2022-09-27T12:40:02.856Z,13.80
2022-09-27T12:41:02.922Z,13.80
2022-09-27T12:42:02.893Z,13.80
2022-09-27T12:43:03.039Z,13.80
2022-09-27T12:44:03.177Z,13.80
2022-09-27T12:45:03.175Z,13.70
2022-09-27T12:46:03.166Z,13.70
2022-09-27T12:47:03.352Z,13.70
2022-09-27T12:48:03.329Z,13.60
2022-09-27T12:49:03.472Z,13.60
2022-09-27T12:50:03.420Z,13.60
2022-09-27T12:51:03.467Z,13.50
2022-09-27T12:52:03.560Z,13.50
2022-09-27T12:53:03.504Z,13.50